createdAt,value
2024-03-12T00:00:43.593Z,85.70
2024-03-12T00:01:34.396Z,66.80
2024-03-12T00:02:25.160Z,98.10
2024-03-12T00:03:15.956Z,82.50
2024-03-12T00:04:06.790Z,98.30
2024-03-12T00:04:57.625Z,70.50
2024-03-12T00:05:48.413Z,73.60
2024-03-12T00:06:39.370Z,73.40
2024-03-12T00:07:30.163Z,59.70
2024-03-12T00:08:20.952Z,70.10
2024-03-12T00:09:11.770Z,58.70
2024-03-12T00:10:02.792Z,58.90
2024-03-12T00:10:53.783Z,66.70
2024-03-12T00:11:44.542Z,67.20
2024-03-12T00:12:35.400Z,72.90
2024-03-12T00:13:26.150Z,73.70
2024-03-12T00:14:16.934Z,64.70
2024-03-12T00:15:07.718Z,62.60
2024-03-12T00:15:58.552Z,65.90
2024-03-12T00:16:49.306Z,66.90
2024-03-12T00:17:40.126Z,74.00
2024-03-12T00:18:30.893Z,80.10
2024-03-12T00:19:21.676Z,78.10
2024-03-12T00:20:12.470Z,65.30
2024-03-12T00:21:03.256Z,66.10
2024-03-12T00:21:54.119Z,68.00
2024-03-12T00:22:44.980Z,76.40
2024-03-12T00:23:35.754Z,75.30
2024-03-12T00:24:26.588Z,64.90
2024-03-12T00:25:17.396Z,61.90
2024-03-12T00:26:08.245Z,70.00
2024-03-12T00:26:58.994Z,63.20
2024-03-12T00:27:49.862Z,59.80
2024-03-12T00:28:40.592Z,73.20
2024-03-12T00:29:31.369Z,73.30
2024-03-12T00:30:22.178Z,81.80
2024-03-12T00:31:13.020Z,86.00
2024-03-12T00:32:03.769Z,78.00
2024-03-12T00:32:54.587Z,66.70
2024-03-12T00:33:45.531Z,69.90
2024-03-12T00:34:36.439Z,65.90
2024-03-12T00:35:27.146Z,63.00
2024-03-12T00:36:17.870Z,68.50
2024-03-12T00:37:09.043Z,59.70
2024-03-12T00:38:00.275Z,74.80
2024-03-12T00:38:51.441Z,74.20
2024-03-12T00:39:42.112Z,61.10
2024-03-12T00:40:33.243Z,63.80
2024-03-12T00:41:24.470Z,65.30
2024-03-12T00:42:15.551Z,73.80
2024-03-12T00:43:06.584Z,62.50
2024-03-12T00:43:57.479Z,71.80
2024-03-12T00:44:48.549Z,69.80
2024-03-12T00:45:40.420Z,72.80
2024-03-12T00:46:30.481Z,70.30
2024-03-12T00:47:21.408Z,75.40
2024-03-12T00:48:12.754Z,65.00
2024-03-12T00:49:03.679Z,60.10
2024-03-12T00:49:57.839Z,58.90
2024-03-12T00:50:45.532Z,59.60
2024-03-12T00:51:36.459Z,64.90
2024-03-12T00:52:27.437Z,69.60
2024-03-12T00:53:18.391Z,60.30
2024-03-12T00:54:09.167Z,67.00
2024-03-12T00:55:00.053Z,70.00
2024-03-12T00:55:51.193Z,59.20
2024-03-12T00:56:42.386Z,63.40
2024-03-12T00:57:33.479Z,61.50
2024-03-12T00:58:24.429Z,63.80
2024-03-12T00:59:15.765Z,65.40
2024-03-12T01:00:06.330Z,72.70
2024-03-12T01:00:57.065Z,73.80
2024-03-12T01:01:47.862Z,74.10
2024-03-12T01:02:38.864Z,75.40
2024-03-12T01:03:29.947Z,66.00
2024-03-12T01:04:20.670Z,69.90
2024-03-12T01:05:11.791Z,63.00
2024-03-12T01:06:03.061Z,66.50
2024-03-12T01:06:54.200Z,56.30
2024-03-12T01:07:45.373Z,64.00
2024-03-12T01:08:36.164Z,65.70
2024-03-12T01:09:26.827Z,67.40
2024-03-12T01:10:18.183Z,63.90
2024-03-12T01:11:09.065Z,65.50
2024-03-12T01:12:00.216Z,65.40
2024-03-12T01:12:51.176Z,74.90
2024-03-12T01:13:42.012Z,71.40
2024-03-12T01:14:32.725Z,56.70
2024-03-12T01:15:23.489Z,119.90
2024-03-12T01:16:14.733Z,92.50
2024-03-12T01:17:05.995Z,78.00
2024-03-12T01:17:56.764Z,68.10
2024-03-12T01:18:47.892Z,66.00
2024-03-12T01:19:39.137Z,60.20
2024-03-12T01:20:30.212Z,66.70
2024-03-12T01:21:20.944Z,63.60
2024-03-12T01:22:53.340Z,60.50
2024-03-12T01:24:24.743Z,66.20
2024-03-12T01:25:15.269Z,64.50
2024-03-12T01:26:06.364Z,58.20
2024-03-12T01:26:57.588Z,67.00
2024-03-12T01:27:48.920Z,82.70
2024-03-12T01:28:39.595Z,59.60
2024-03-12T01:29:30.887Z,97.90
2024-03-12T01:30:22.443Z,62.50
2024-03-12T01:31:13.140Z,59.60
2024-03-12T01:32:03.713Z,48.50
2024-03-12T01:32:54.816Z,57.70
2024-03-12T01:33:45.478Z,81.30
2024-03-12T01:34:36.525Z,69.70
2024-03-12T01:35:27.195Z,50.80
2024-03-12T01:36:18.310Z,78.60
2024-03-12T01:37:09.300Z,66.70
2024-03-12T01:38:00.572Z,58.80
2024-03-12T01:38:51.537Z,55.60
2024-03-12T01:39:42.838Z,56.10
2024-03-12T01:40:33.768Z,55.10
2024-03-12T01:41:24.917Z,59.50
2024-03-12T01:42:15.965Z,53.20
2024-03-12T01:43:07.306Z,60.80
2024-03-12T01:43:58.121Z,60.10
2024-03-12T01:44:49.003Z,58.60
2024-03-12T01:45:39.955Z,55.30
2024-03-12T01:46:30.773Z,63.70
2024-03-12T01:47:21.556Z,61.10
2024-03-12T01:48:13.160Z,55.70
2024-03-12T01:49:03.472Z,63.30
2024-03-12T01:49:54.243Z,55.20
2024-03-12T01:50:45.038Z,52.10
2024-03-12T01:51:35.937Z,52.50
2024-03-12T01:52:26.713Z,53.40
2024-03-12T01:53:17.559Z,51.60
2024-03-12T01:54:08.330Z,53.30
2024-03-12T01:54:59.257Z,53.20
2024-03-12T01:55:50.031Z,49.30
2024-03-12T01:56:40.881Z,53.50
2024-03-12T01:57:31.693Z,51.90
2024-03-12T01:58:22.558Z,52.90
2024-03-12T01:59:13.366Z,61.60
2024-03-12T02:00:04.275Z,69.90
2024-03-12T02:00:55.211Z,52.10
2024-03-12T02:01:46.048Z,52.30
2024-03-12T02:02:36.835Z,51.20
2024-03-12T02:03:27.740Z,51.00
2024-03-12T02:04:18.503Z,49.70
2024-03-12T02:05:09.502Z,55.00
2024-03-12T02:06:00.468Z,50.60
2024-03-12T02:06:51.655Z,57.80
2024-03-12T02:07:42.512Z,61.20
2024-03-12T02:08:33.809Z,53.10
2024-03-12T02:09:24.467Z,54.60
2024-03-12T02:10:15.211Z,54.00
2024-03-12T02:11:06.241Z,52.60
2024-03-12T02:11:57.474Z,52.60
2024-03-12T02:12:48.727Z,51.80
2024-03-12T02:13:39.677Z,52.80
2024-03-12T02:14:30.656Z,51.80
2024-03-12T02:15:21.472Z,52.20
2024-03-12T02:16:12.351Z,51.50
2024-03-12T02:17:03.344Z,58.40
2024-03-12T02:17:54.340Z,56.20
2024-03-12T02:18:45.288Z,51.80
2024-03-12T02:19:36.527Z,52.00
2024-03-12T02:20:27.841Z,54.40
2024-03-12T02:21:18.461Z,59.30
2024-03-12T02:22:09.358Z,58.70
2024-03-12T02:23:00.504Z,50.40
2024-03-12T02:23:51.522Z,54.60
2024-03-12T02:24:42.410Z,55.20
2024-03-12T02:25:33.312Z,50.80
2024-03-12T02:26:24.462Z,50.20
2024-03-12T02:27:15.628Z,63.40
2024-03-12T02:28:06.462Z,63.10
2024-03-12T02:28:57.293Z,70.30
2024-03-12T02:29:48.007Z,56.70
2024-03-12T02:30:39.202Z,60.50
2024-03-12T02:31:29.924Z,59.80
2024-03-12T02:32:21.177Z,53.10
2024-03-12T02:33:11.847Z,55.10
2024-03-12T02:34:03.019Z,54.20
2024-03-12T02:34:53.837Z,55.40
2024-03-12T02:35:45.050Z,52.50
2024-03-12T02:36:35.961Z,51.70
2024-03-12T02:37:26.853Z,63.60
2024-03-12T02:38:17.677Z,56.60
2024-03-12T02:39:08.628Z,53.70
2024-03-12T02:39:59.832Z,53.40
2024-03-12T02:40:50.924Z,47.80
2024-03-12T02:41:41.792Z,51.00
2024-03-12T02:42:33.026Z,49.30
2024-03-12T02:43:23.882Z,50.70
2024-03-12T02:44:14.914Z,53.20
2024-03-12T02:45:05.891Z,50.70
2024-03-12T02:45:56.740Z,58.80
2024-03-12T02:46:47.759Z,58.80
2024-03-12T02:47:38.747Z,50.70
2024-03-12T02:48:29.766Z,52.40
2024-03-12T02:49:20.984Z,60.30
2024-03-12T02:50:11.937Z,55.00
2024-03-12T02:51:03.189Z,54.40
2024-03-12T02:51:54.219Z,53.30
2024-03-12T02:52:45.316Z,53.60
2024-03-12T02:53:36.274Z,52.00
2024-03-12T02:54:27.483Z,53.90
2024-03-12T02:55:18.327Z,52.70
2024-03-12T02:56:09.150Z,50.10
2024-03-12T02:56:59.812Z,49.10
2024-03-12T02:57:51.125Z,47.90
2024-03-12T02:58:41.627Z,52.60
2024-03-12T02:59:32.626Z,49.50
2024-03-12T03:00:23.503Z,53.60
2024-03-12T03:01:14.515Z,49.00
2024-03-12T03:02:05.340Z,48.70
2024-03-12T03:02:56.537Z,46.60
2024-03-12T03:03:47.667Z,52.70
2024-03-12T03:04:38.714Z,48.80
2024-03-12T03:05:29.407Z,49.30
2024-03-12T03:06:20.594Z,49.60
2024-03-12T03:07:11.292Z,56.70
2024-03-12T03:08:02.414Z,49.10
2024-03-12T03:08:53.099Z,51.10
2024-03-12T03:09:44.525Z,50.00
2024-03-12T03:10:35.116Z,52.40
2024-03-12T03:11:26.372Z,50.70
2024-03-12T03:12:17.103Z,47.60
2024-03-12T03:13:07.958Z,49.50
2024-03-12T03:13:58.781Z,48.60
2024-03-12T03:14:49.628Z,48.10
2024-03-12T03:15:40.399Z,48.70
2024-03-12T03:16:31.297Z,46.60
2024-03-12T03:17:21.855Z,52.10
2024-03-12T03:18:12.656Z,50.80
2024-03-12T03:19:03.794Z,59.00
2024-03-12T03:19:54.802Z,52.00
2024-03-12T03:20:45.765Z,49.80
2024-03-12T03:21:37.100Z,55.00
2024-03-12T03:22:28.208Z,52.20
2024-03-12T03:23:19.418Z,48.30
2024-03-12T03:24:10.637Z,58.30
2024-03-12T03:25:02.040Z,49.80
2024-03-12T03:25:52.595Z,52.90
2024-03-12T03:26:43.576Z,55.80
2024-03-12T03:27:34.299Z,50.00
2024-03-12T03:28:25.602Z,77.40
2024-03-12T03:29:16.274Z,53.80
2024-03-12T03:30:07.040Z,55.60
2024-03-12T03:30:58.494Z,126.80
2024-03-12T03:31:48.544Z,54.10
2024-03-12T03:32:39.303Z,54.30
2024-03-12T03:33:30.233Z,57.60
2024-03-12T03:34:20.964Z,82.20
2024-03-12T03:35:12.332Z,76.70
2024-03-12T03:36:02.991Z,88.30
2024-03-12T03:36:53.914Z,64.10
2024-03-12T03:37:44.629Z,62.70
2024-03-12T03:38:35.468Z,80.20
2024-03-12T03:39:26.352Z,78.80
2024-03-12T03:40:17.216Z,98.10
2024-03-12T03:41:07.989Z,90.40
2024-03-12T03:41:58.834Z,74.30
2024-03-12T03:42:49.659Z,105.90
2024-03-12T03:43:40.416Z,104.90
2024-03-12T03:44:31.644Z,60.80
2024-03-12T03:45:22.543Z,68.60
2024-03-12T03:46:13.392Z,55.80
2024-03-12T03:47:04.221Z,75.30
2024-03-12T03:47:55.048Z,120.40
2024-03-12T03:48:45.926Z,97.80
2024-03-12T03:49:36.683Z,105.10
2024-03-12T03:50:27.576Z,65.70
2024-03-12T03:51:18.367Z,83.20
2024-03-12T03:52:09.323Z,72.50
2024-03-12T03:53:00.153Z,105.30
2024-03-12T03:53:51.042Z,88.20
2024-03-12T03:54:41.851Z,93.20
2024-03-12T03:55:32.630Z,83.90
2024-03-12T03:56:23.424Z,64.30
2024-03-12T03:57:14.359Z,71.60
2024-03-12T03:58:05.260Z,57.80
2024-03-12T03:58:56.090Z,76.90
2024-03-12T03:59:46.882Z,111.50
2024-03-12T04:00:37.866Z,80.80
2024-03-12T04:01:28.664Z,73.90
2024-03-12T04:02:19.499Z,78.60
2024-03-12T04:03:10.279Z,76.20
2024-03-12T04:04:01.178Z,61.60
2024-03-12T04:04:51.944Z,103.20
2024-03-12T04:05:42.833Z,94.70
2024-03-12T04:06:34.020Z,70.50
2024-03-12T04:07:24.828Z,72.60
2024-03-12T04:08:15.639Z,82.30
2024-03-12T04:09:06.518Z,67.30
2024-03-12T04:09:57.369Z,73.40
2024-03-12T04:10:48.239Z,68.40
2024-03-12T04:11:39.129Z,69.80
2024-03-12T04:12:30.065Z,69.50
2024-03-12T04:13:20.870Z,54.60
2024-03-12T04:14:11.667Z,58.10
2024-03-12T04:15:02.465Z,92.80
2024-03-12T04:15:53.362Z,65.80
2024-03-12T04:16:44.187Z,101.00
2024-03-12T04:17:35.082Z,89.00
2024-03-12T04:18:25.888Z,87.30
2024-03-12T04:19:16.794Z,92.70
2024-03-12T04:20:07.627Z,76.00
2024-03-12T04:20:58.518Z,83.30
2024-03-12T04:21:49.302Z,71.80
2024-03-12T04:22:40.189Z,76.60
2024-03-12T04:23:30.938Z,84.30
2024-03-12T04:24:21.777Z,70.40
2024-03-12T04:25:12.621Z,75.90
2024-03-12T04:26:03.464Z,77.10
2024-03-12T04:26:54.213Z,75.00
2024-03-12T04:27:45.116Z,71.90
2024-03-12T04:28:36.019Z,98.50
2024-03-12T04:29:26.925Z,58.50
2024-03-12T04:30:17.718Z,97.40
2024-03-12T04:31:08.617Z,62.20
2024-03-12T04:31:59.482Z,76.50
2024-03-12T04:32:50.305Z,73.80
2024-03-12T04:33:41.095Z,68.50
2024-03-12T04:34:31.881Z,69.30
2024-03-12T04:35:22.697Z,71.40
2024-03-12T04:36:13.572Z,65.00
2024-03-12T04:37:04.447Z,65.40
2024-03-12T04:37:55.283Z,60.00
2024-03-12T04:38:46.077Z,68.90
2024-03-12T04:39:36.994Z,81.10
2024-03-12T04:40:27.728Z,73.80
2024-03-12T04:41:18.520Z,71.70
2024-03-12T04:42:09.277Z,101.00
2024-03-12T04:43:00.056Z,73.30
2024-03-12T04:43:50.813Z,67.30
2024-03-12T04:44:41.677Z,65.90
2024-03-12T04:45:32.528Z,230.00
2024-03-12T04:46:23.364Z,157.60
2024-03-12T04:47:14.144Z,216.10
2024-03-12T04:48:05.100Z,66.20
2024-03-12T04:48:55.837Z,53.30
2024-03-12T04:49:46.631Z,59.10
2024-03-12T04:50:37.403Z,60.40
2024-03-12T04:51:28.242Z,50.40
2024-03-12T04:52:18.983Z,53.70
2024-03-12T04:53:09.831Z,52.70
2024-03-12T04:54:00.775Z,52.30
2024-03-12T04:54:51.460Z,51.90
2024-03-12T04:55:42.209Z,51.20
2024-03-12T04:56:33.078Z,48.30
2024-03-12T04:57:23.828Z,52.20
2024-03-12T04:58:14.695Z,50.60
2024-03-12T04:59:05.441Z,46.80
2024-03-12T04:59:56.251Z,45.50
2024-03-12T05:00:47.174Z,43.80
2024-03-12T05:01:38.134Z,40.90
2024-03-12T05:02:28.941Z,44.70
2024-03-12T05:03:19.855Z,42.00
2024-03-12T05:04:15.869Z,43.20
2024-03-12T05:05:02.649Z,42.40
2024-03-12T05:05:52.802Z,40.90
2024-03-12T05:06:43.634Z,42.50
2024-03-12T05:07:34.468Z,40.20
2024-03-12T05:08:25.270Z,41.40
2024-03-12T05:09:16.170Z,41.70
2024-03-12T05:10:07.079Z,45.30
2024-03-12T05:11:00.255Z,207.20
2024-03-12T05:11:49.048Z,253.30
2024-03-12T05:12:39.978Z,55.80
2024-03-12T05:13:30.724Z,43.30
2024-03-12T05:14:21.852Z,40.80
2024-03-12T05:15:12.631Z,41.90
2024-03-12T05:16:03.447Z,41.40
2024-03-12T05:16:54.203Z,41.80
2024-03-12T05:17:44.938Z,40.20
2024-03-12T05:18:35.825Z,40.60
2024-03-12T05:19:26.646Z,39.70
2024-03-12T05:20:17.528Z,40.70
2024-03-12T05:21:08.396Z,41.70
2024-03-12T05:21:59.738Z,39.60
2024-03-12T05:22:50.521Z,41.80
2024-03-12T05:23:41.138Z,39.30
2024-03-12T05:24:32.260Z,39.40
2024-03-12T05:25:23.127Z,41.60
2024-03-12T05:26:13.974Z,39.70
2024-03-12T05:27:05.263Z,42.00
2024-03-12T05:27:56.091Z,39.20
2024-03-12T05:28:46.948Z,40.40
2024-03-12T05:29:37.845Z,39.10
2024-03-12T05:30:28.731Z,40.90
2024-03-12T05:31:19.611Z,39.50
2024-03-12T05:32:10.479Z,39.70
2024-03-12T05:33:01.481Z,39.50
2024-03-12T05:33:52.389Z,41.70
2024-03-12T05:34:43.256Z,39.90
2024-03-12T05:35:34.128Z,38.70
2024-03-12T05:36:25.017Z,41.20
2024-03-12T05:37:15.957Z,41.80
2024-03-12T05:38:06.860Z,41.10
2024-03-12T05:38:57.740Z,40.00
2024-03-12T05:39:48.685Z,41.10
2024-03-12T05:40:39.551Z,38.40
2024-03-12T05:41:30.430Z,40.30
2024-03-12T05:42:21.313Z,42.00
2024-03-12T05:43:12.258Z,39.50
2024-03-12T05:44:03.092Z,37.90
2024-03-12T05:44:54.081Z,38.80
2024-03-12T05:45:45.045Z,38.10
2024-03-12T05:46:35.977Z,40.30
2024-03-12T05:47:26.867Z,40.90
2024-03-12T05:48:17.771Z,40.20
2024-03-12T05:49:08.683Z,41.60
2024-03-12T05:50:02.821Z,39.20
2024-03-12T05:50:50.540Z,39.20
2024-03-12T05:51:41.449Z,39.00
2024-03-12T05:52:32.309Z,40.40
2024-03-12T05:53:23.215Z,41.20
2024-03-12T05:54:14.095Z,42.20
2024-03-12T05:55:05.028Z,42.60
2024-03-12T05:55:55.874Z,41.90
2024-03-12T05:56:46.767Z,45.40
2024-03-12T05:57:37.681Z,46.00
2024-03-12T05:58:28.546Z,45.30
2024-03-12T05:59:19.465Z,44.20
2024-03-12T06:00:10.336Z,47.30
2024-03-12T06:01:01.303Z,53.70
2024-03-12T06:01:52.252Z,52.40
2024-03-12T06:02:43.382Z,62.60
2024-03-12T06:03:34.325Z,68.30
2024-03-12T06:04:25.257Z,57.60
2024-03-12T06:05:16.132Z,56.70
2024-03-12T06:06:07.000Z,50.30
2024-03-12T06:06:57.936Z,50.40
2024-03-12T06:07:48.789Z,63.00
2024-03-12T06:08:39.678Z,51.10
2024-03-12T06:09:30.627Z,48.50
2024-03-12T06:10:21.492Z,52.20
2024-03-12T06:11:12.397Z,49.50
2024-03-12T06:12:03.272Z,52.80
2024-03-12T06:12:54.232Z,49.60
2024-03-12T06:13:45.122Z,48.00
2024-03-12T06:14:35.987Z,50.00
2024-03-12T06:15:26.890Z,62.70
2024-03-12T06:16:17.806Z,46.70
2024-03-12T06:17:08.678Z,49.50
2024-03-12T06:17:59.581Z,47.40
2024-03-12T06:18:50.561Z,53.90
2024-03-12T06:19:41.445Z,50.30
2024-03-12T06:20:32.319Z,47.00
2024-03-12T06:21:23.190Z,53.30
2024-03-12T06:22:14.138Z,50.30
2024-03-12T06:23:04.996Z,50.10
2024-03-12T06:23:55.882Z,50.10
2024-03-12T06:24:46.610Z,54.10
2024-03-12T06:25:37.182Z,49.30
2024-03-12T06:26:28.333Z,54.80
2024-03-12T06:27:19.103Z,49.20
2024-03-12T06:28:09.818Z,48.00
2024-03-12T06:29:00.750Z,49.00
2024-03-12T06:29:51.643Z,48.10
2024-03-12T06:30:42.585Z,46.60
2024-03-12T06:31:33.433Z,47.10
2024-03-12T06:32:24.334Z,46.80
2024-03-12T06:33:15.238Z,46.00
2024-03-12T06:34:06.188Z,47.00
2024-03-12T06:34:57.067Z,46.80
2024-03-12T06:35:47.929Z,48.00
2024-03-12T06:36:38.832Z,48.20
2024-03-12T06:37:29.723Z,50.40
2024-03-12T06:38:20.637Z,54.60
2024-03-12T06:39:11.554Z,50.60
2024-03-12T06:40:02.542Z,49.70
2024-03-12T06:40:53.402Z,52.60
2024-03-12T06:41:44.309Z,49.50
2024-03-12T06:42:35.214Z,48.90
2024-03-12T06:43:26.083Z,52.40
2024-03-12T06:44:17.040Z,50.70
2024-03-12T06:45:07.937Z,50.80
2024-03-12T06:45:58.865Z,50.70
2024-03-12T06:46:49.733Z,48.80
2024-03-12T06:47:40.678Z,48.70
2024-03-12T06:48:31.571Z,48.70
2024-03-12T06:49:22.464Z,50.90
2024-03-12T06:50:13.370Z,50.70
2024-03-12T06:51:04.260Z,49.20
2024-03-12T06:51:55.278Z,48.30
2024-03-12T06:52:46.158Z,46.70
2024-03-12T06:53:37.124Z,47.70
2024-03-12T06:54:28.156Z,46.90
2024-03-12T06:55:19.132Z,46.20
2024-03-12T06:56:10.077Z,48.00
2024-03-12T06:57:00.924Z,47.40
2024-03-12T06:57:51.840Z,48.50
2024-03-12T06:58:42.728Z,46.60
2024-03-12T06:59:33.666Z,49.10
2024-03-12T07:00:24.606Z,46.20
2024-03-12T07:01:15.728Z,45.70
2024-03-12T07:02:06.142Z,46.00
2024-03-12T07:02:57.034Z,44.70
2024-03-12T07:03:50.701Z,49.30
2024-03-12T07:04:38.722Z,48.60
2024-03-12T07:05:29.636Z,46.00
2024-03-12T07:06:20.529Z,49.30
2024-03-12T07:07:11.474Z,49.20
2024-03-12T07:08:02.395Z,47.50
2024-03-12T07:08:53.290Z,48.80
2024-03-12T07:09:44.328Z,47.40
2024-03-12T07:10:35.202Z,48.70
2024-03-12T07:11:26.186Z,47.30
2024-03-12T07:12:17.087Z,52.20
2024-03-12T07:13:08.097Z,53.60
2024-03-12T07:13:58.989Z,53.90
2024-03-12T07:14:49.920Z,53.40
2024-03-12T07:15:40.994Z,49.30
2024-03-12T07:16:32.000Z,45.90
2024-03-12T07:17:22.924Z,46.40
2024-03-12T07:18:13.881Z,44.90
2024-03-12T07:19:04.805Z,46.00
2024-03-12T07:19:55.716Z,43.80
2024-03-12T07:20:46.674Z,44.30
2024-03-12T07:21:37.549Z,43.80
2024-03-12T07:22:28.460Z,44.70
2024-03-12T07:23:19.388Z,44.40
2024-03-12T07:24:10.301Z,44.90
2024-03-12T07:25:01.258Z,44.60
2024-03-12T07:25:52.150Z,47.10
2024-03-12T07:26:43.058Z,44.30
2024-03-12T07:27:33.999Z,45.20
2024-03-12T07:28:25.298Z,45.70
2024-03-12T07:29:15.688Z,47.70
2024-03-12T07:30:06.604Z,44.40
2024-03-12T07:30:57.582Z,43.80
2024-03-12T07:31:48.459Z,47.60
2024-03-12T07:32:39.426Z,46.00
2024-03-12T07:33:30.316Z,47.80
2024-03-12T07:34:21.292Z,45.50
2024-03-12T07:35:12.224Z,46.70
2024-03-12T07:36:03.146Z,47.00
2024-03-12T07:36:54.080Z,46.40
2024-03-12T07:37:44.974Z,47.40
2024-03-12T07:38:35.907Z,47.60
2024-03-12T07:39:26.873Z,46.20
2024-03-12T07:40:18.073Z,46.60
2024-03-12T07:41:08.383Z,47.70
2024-03-12T07:41:59.311Z,46.50
2024-03-12T07:42:50.254Z,45.00
2024-03-12T07:43:41.143Z,45.10
2024-03-12T07:44:32.066Z,43.90
2024-03-12T07:45:22.978Z,43.40
2024-03-12T07:46:13.955Z,45.20
2024-03-12T07:47:04.862Z,42.90
2024-03-12T07:47:55.807Z,48.70
2024-03-12T07:48:46.702Z,48.80
2024-03-12T07:49:37.868Z,50.70
2024-03-12T07:50:28.437Z,50.30
2024-03-12T07:51:19.313Z,46.30
2024-03-12T07:52:10.717Z,50.70
2024-03-12T07:53:01.062Z,47.80
2024-03-12T07:53:51.969Z,45.60
2024-03-12T07:54:42.888Z,48.90
2024-03-12T07:55:33.802Z,46.40
2024-03-12T07:56:24.734Z,45.70
2024-03-12T07:57:17.573Z,42.80
2024-03-12T07:58:06.716Z,45.60
2024-03-12T07:58:57.561Z,45.60
2024-03-12T07:59:48.495Z,45.30
2024-03-12T08:00:39.464Z,46.70
2024-03-12T08:01:30.343Z,45.30
2024-03-12T08:02:21.238Z,46.20
2024-03-12T08:03:12.155Z,44.50
2024-03-12T08:04:03.097Z,46.80
2024-03-12T08:04:53.992Z,46.90
2024-03-12T08:05:44.931Z,45.20
2024-03-12T08:06:35.894Z,47.70
2024-03-12T08:07:26.767Z,45.30
2024-03-12T08:08:17.749Z,43.80
2024-03-12T08:09:09.646Z,45.80
2024-03-12T08:09:59.471Z,44.70
2024-03-12T08:10:50.391Z,46.30
2024-03-12T08:11:41.311Z,45.80
2024-03-12T08:12:32.227Z,45.70
2024-03-12T08:13:23.136Z,45.50
2024-03-12T08:14:14.050Z,48.10
2024-03-12T08:15:04.978Z,45.80
2024-03-12T08:15:55.924Z,45.70
2024-03-12T08:16:46.818Z,45.20
2024-03-12T08:17:37.794Z,45.20
2024-03-12T08:18:28.749Z,47.40
2024-03-12T08:19:19.810Z,45.20
2024-03-12T08:20:10.690Z,46.00
2024-03-12T08:21:01.617Z,44.00
2024-03-12T08:21:52.580Z,46.30
2024-03-12T08:22:43.466Z,45.20
2024-03-12T08:23:34.384Z,48.40
2024-03-12T08:24:25.303Z,49.40
2024-03-12T08:25:17.920Z,52.80
2024-03-12T08:26:07.325Z,51.20
2024-03-12T08:26:58.269Z,49.80
2024-03-12T08:27:49.202Z,53.20
2024-03-12T08:28:40.161Z,50.50
2024-03-12T08:29:31.055Z,57.00
2024-03-12T08:30:21.928Z,60.20
2024-03-12T08:31:19.308Z,59.50
2024-03-12T08:32:04.965Z,52.20
2024-03-12T08:32:54.775Z,56.80
2024-03-12T08:33:45.702Z,58.90
2024-03-12T08:34:36.593Z,57.10
2024-03-12T08:35:27.513Z,56.20
2024-03-12T08:36:18.453Z,53.20
2024-03-12T08:37:09.475Z,48.70
2024-03-12T08:38:00.365Z,46.90
2024-03-12T08:38:51.263Z,46.80
2024-03-12T08:39:42.217Z,48.40
2024-03-12T08:40:33.197Z,48.90
2024-03-12T08:41:24.103Z,47.40
2024-03-12T08:42:15.019Z,48.20
2024-03-12T08:43:08.029Z,48.70
2024-03-12T08:43:57.002Z,46.60
2024-03-12T08:44:47.907Z,45.20
2024-03-12T08:45:38.845Z,45.50
2024-03-12T08:46:30.132Z,47.90
2024-03-12T08:47:20.372Z,48.20
2024-03-12T08:48:11.349Z,44.60
2024-03-12T08:49:02.353Z,46.70
2024-03-12T08:49:53.288Z,43.90
2024-03-12T08:50:44.206Z,45.90
2024-03-12T08:51:35.579Z,45.70
2024-03-12T08:52:26.027Z,46.20
2024-03-12T08:53:17.001Z,44.70
2024-03-12T08:54:07.936Z,44.70
2024-03-12T08:54:58.882Z,43.80
2024-03-12T08:55:49.775Z,44.80
2024-03-12T08:56:40.680Z,42.50
2024-03-12T08:57:31.620Z,39.90
2024-03-12T08:58:22.560Z,41.40
2024-03-12T08:59:13.428Z,42.20
2024-03-12T09:00:04.357Z,41.60
2024-03-12T09:00:55.367Z,43.60
2024-03-12T09:01:46.516Z,43.70
2024-03-12T09:02:37.462Z,44.30
2024-03-12T09:03:28.449Z,48.00
2024-03-12T09:04:19.466Z,53.10
2024-03-12T09:05:10.778Z,51.50
2024-03-12T09:06:01.282Z,51.30
2024-03-12T09:06:52.255Z,48.00
2024-03-12T09:07:43.159Z,59.10
2024-03-12T09:08:34.085Z,48.90
2024-03-12T09:09:24.996Z,56.90
2024-03-12T09:10:15.942Z,53.20
2024-03-12T09:11:06.850Z,45.90
2024-03-12T09:11:57.769Z,47.30
2024-03-12T09:12:48.679Z,46.50
2024-03-12T09:13:39.575Z,46.40
2024-03-12T09:14:30.489Z,54.50
2024-03-12T09:15:24.411Z,55.40
2024-03-12T09:16:12.660Z,52.40
2024-03-12T09:17:03.545Z,45.30
2024-03-12T09:17:54.546Z,46.30
2024-03-12T09:18:45.610Z,44.70
2024-03-12T09:19:36.575Z,44.90
2024-03-12T09:20:27.490Z,42.80
2024-03-12T09:21:18.426Z,43.00
2024-03-12T09:22:09.438Z,45.50
2024-03-12T09:23:00.347Z,44.80
2024-03-12T09:23:57.152Z,41.20
2024-03-12T09:24:43.178Z,47.10
2024-03-12T09:25:32.863Z,43.20
2024-03-12T09:26:23.771Z,43.10
2024-03-12T09:27:14.679Z,42.90
2024-03-12T09:28:05.688Z,42.60
2024-03-12T09:28:56.677Z,43.30
2024-03-12T09:29:47.557Z,43.30
2024-03-12T09:30:38.518Z,41.10
2024-03-12T09:31:29.409Z,41.50
2024-03-12T09:32:20.344Z,40.30
2024-03-12T09:33:11.277Z,41.00
2024-03-12T09:34:02.212Z,41.30
2024-03-12T09:34:53.106Z,43.30
2024-03-12T09:35:44.017Z,40.80
2024-03-12T09:36:34.952Z,41.40
2024-03-12T09:37:25.878Z,40.20
2024-03-12T09:38:16.789Z,41.90
2024-03-12T09:39:07.688Z,40.70
2024-03-12T09:39:58.714Z,41.30
2024-03-12T09:40:49.619Z,41.00
2024-03-12T09:41:40.586Z,42.20
2024-03-12T09:42:31.457Z,39.90
2024-03-12T09:43:22.367Z,41.60
2024-03-12T09:44:13.306Z,40.00
2024-03-12T09:45:04.195Z,41.50
2024-03-12T09:45:55.160Z,41.00
2024-03-12T09:46:46.033Z,41.90
2024-03-12T09:47:37.025Z,41.10
2024-03-12T09:48:27.912Z,40.60
2024-03-12T09:49:18.875Z,41.00
2024-03-12T09:50:09.737Z,46.90
2024-03-12T09:51:00.656Z,44.50
2024-03-12T09:51:51.608Z,44.80
2024-03-12T09:52:42.535Z,44.30
2024-03-12T09:53:33.443Z,44.70
2024-03-12T09:54:24.414Z,43.00
2024-03-12T09:55:15.431Z,40.80
2024-03-12T09:56:07.469Z,40.80
2024-03-12T09:56:57.349Z,42.10
2024-03-12T09:57:48.362Z,43.30
2024-03-12T09:58:39.703Z,41.60
2024-03-12T09:59:30.095Z,43.60
2024-03-12T10:00:21.029Z,41.30
2024-03-12T10:01:11.993Z,42.20
2024-03-12T10:02:05.696Z,42.00
2024-03-12T10:02:53.995Z,41.40
2024-03-12T10:03:44.974Z,39.50
2024-03-12T10:04:35.859Z,38.90
2024-03-12T10:05:26.757Z,39.20
2024-03-12T10:06:17.701Z,40.20
2024-03-12T10:07:08.717Z,42.70
2024-03-12T10:07:59.641Z,43.80
2024-03-12T10:08:50.527Z,42.30
2024-03-12T10:09:41.444Z,42.30
2024-03-12T10:10:32.450Z,40.30
2024-03-12T10:11:23.424Z,38.50
2024-03-12T10:12:14.314Z,38.30
2024-03-12T10:13:05.297Z,40.70
2024-03-12T10:13:56.213Z,40.00
2024-03-12T10:14:47.133Z,39.70
2024-03-12T10:15:38.128Z,37.70
2024-03-12T10:16:29.187Z,39.50
2024-03-12T10:17:20.086Z,38.40
2024-03-12T10:18:11.033Z,38.20
2024-03-12T10:19:01.956Z,38.40
2024-03-12T10:19:52.866Z,39.40
2024-03-12T10:20:43.751Z,36.80
2024-03-12T10:21:34.909Z,37.50
2024-03-12T10:22:25.823Z,37.40
2024-03-12T10:23:16.919Z,40.60
2024-03-12T10:24:07.355Z,38.80
2024-03-12T10:24:58.301Z,35.90
2024-03-12T10:25:49.179Z,38.40
2024-03-12T10:26:40.085Z,40.10
2024-03-12T10:27:31.015Z,38.40
2024-03-12T10:28:21.972Z,37.30
2024-03-12T10:29:12.858Z,37.30
2024-03-12T10:30:03.771Z,38.50
2024-03-12T10:30:54.709Z,37.50
2024-03-12T10:31:45.608Z,35.60
2024-03-12T10:32:36.531Z,36.20
2024-03-12T10:33:27.436Z,36.90
2024-03-12T10:34:18.451Z,37.80
2024-03-12T10:35:09.356Z,37.00
2024-03-12T10:36:00.290Z,36.60
2024-03-12T10:36:51.836Z,39.00
2024-03-12T10:37:42.269Z,37.70
2024-03-12T10:38:33.219Z,38.70
2024-03-12T10:39:24.140Z,36.00
2024-03-12T10:40:15.054Z,37.70
2024-03-12T10:41:05.934Z,38.70
2024-03-12T10:41:56.857Z,37.50
2024-03-12T10:42:47.787Z,37.00
2024-03-12T10:43:38.703Z,35.40
2024-03-12T10:44:29.616Z,34.90
2024-03-12T10:45:20.545Z,37.90
2024-03-12T10:46:11.495Z,37.30
2024-03-12T10:47:02.465Z,38.00
2024-03-12T10:47:53.350Z,36.00
2024-03-12T10:48:44.275Z,38.40
2024-03-12T10:49:35.171Z,34.80
2024-03-12T10:50:26.092Z,34.50
2024-03-12T10:51:17.018Z,37.40
2024-03-12T10:52:08.185Z,37.00
2024-03-12T10:52:58.519Z,37.70
2024-03-12T10:53:49.459Z,35.00
2024-03-12T10:54:40.562Z,34.50
2024-03-12T10:55:31.580Z,34.80
2024-03-12T10:56:22.472Z,38.20
2024-03-12T10:57:13.390Z,34.30